Time;durP1;ratioP1;P1;durP2;ratioP2;P2;SDS_P1;SDS_P2;PMS_P1;PMS_P2;Temp;Humidity;BMP_temperature;BMP_pressure;BME280_temperature;BME280_humidity;BME280_pressure;Samples;Min_cycle;Max_cycle;Signal;HPM_P1;HPM_P2
2021/04/28 00:01:19;;;;;;;46.95;29.27;;;359.20;2329.60;;;;;;5056200;28;20017;-87
2021/04/28 00:03:44;;;;;;;52.08;32.45;;;359.30;2329.60;;;;;;5056160;28;20025;-87
2021/04/28 00:06:10;;;;;;;50.40;33.30;;;359.30;2329.60;;;;;;5056110;28;20021;-85
2021/04/28 00:08:36;;;;;;;53.53;34.30;;;359.10;2329.60;;;;;;5038465;28;20040;-86
2021/04/28 00:11:04;;;;;;;47.65;32.28;;;359.10;2329.60;;;;;;5039334;28;20025;-87
2021/04/28 00:13:29;;;;;;;45.25;30.35;;;359.10;2329.60;;;;;;5038327;28;20032;-86
2021/04/28 00:15:56;;;;;;;39.47;28.52;;;359.10;2329.60;;;;;;5038900;28;20017;-86
2021/04/28 00:18:22;;;;;;;33.67;24.00;;;359.00;2329.60;;;;;;5039062;28;20356;-86
2021/04/28 00:20:48;;;;;;;26.30;17.90;;;358.90;2329.60;;;;;;5038217;28;20037;-86
2021/04/28 00:23:15;;;;;;;27.80;17.05;;;359.00;2329.60;;;;;;5039671;28;20120;-86
2021/04/28 00:25:42;;;;;;;25.67;17.45;;;359.00;2329.60;;;;;;5038625;28;20028;-86
2021/04/28 00:28:09;;;;;;;24.23;16.70;;;359.00;2329.60;;;;;;5037450;28;20045;-86
2021/04/28 00:30:35;;;;;;;23.15;16.75;;;359.00;2329.60;;;;;;5038885;28;20054;-86
2021/04/28 00:33:02;;;;;;;22.65;16.40;;;359.00;2329.60;;;;;;5038113;28;20029;-86
2021/04/28 00:35:27;;;;;;;22.15;18.27;;;358.80;2329.60;;;;;;5037860;28;20021;-87
2021/04/28 00:37:53;;;;;;;30.85;21.77;;;358.90;2329.60;;;;;;5038406;28;20021;-86
2021/04/28 00:40:23;;;;;;;36.47;23.38;;;358.80;2329.60;;;;;;5038045;28;20146;-87
2021/04/28 00:42:49;;;;;;;31.38;21.90;;;358.60;2329.60;;;;;;5037649;28;20044;-86
2021/04/28 00:45:18;;;;;;;26.00;17.98;;;358.70;2329.60;;;;;;5038093;28;20032;-87
2021/04/28 00:47:44;;;;;;;29.05;18.58;;;358.80;2329.60;;;;;;5037939;28;20127;-87
2021/04/28 00:50:14;;;;;;;26.58;18.83;;;358.60;2329.60;;;;;;5037768;28;20471;-88
2021/04/28 00:52:40;;;;;;;29.90;20.60;;;358.90;2329.60;;;;;;5037713;28;20029;-87
2021/04/28 00:55:07;;;;;;;28.77;20.38;;;358.90;2329.60;;;;;;5037951;28;20032;-87
2021/04/28 00:57:33;;;;;;;28.63;21.67;;;358.80;2329.60;;;;;;5037303;28;20021;-85
2021/04/28 00:59:59;;;;;;;25.50;17.10;;;358.90;2329.60;;;;;;5037776;28;20020;-87
2021/04/28 01:02:25;;;;;;;22.52;14.43;;;358.90;2329.60;;;;;;5037191;28;20028;-86
2021/04/28 01:04:52;;;;;;;18.65;15.10;;;358.50;2329.60;;;;;;5037602;28;20047;-86
2021/04/28 01:07:19;;;;;;;20.83;13.95;;;359.10;2329.60;;;;;;5037419;28;20025;-86
2021/04/28 01:09:47;;;;;;;21.25;13.57;;;358.70;2329.60;;;;;;5037136;28;20027;-86
2021/04/28 01:12:15;;;;;;;18.30;14.77;;;358.70;2329.60;;;;;;5037131;28;20025;-86
2021/04/28 01:14:42;;;;;;;21.70;14.55;;;358.70;2329.60;;;;;;5037201;28;20047;-88
2021/04/28 01:17:08;;;;;;;18.55;15.07;;;358.60;2329.60;;;;;;5037326;28;20017;-88
2021/04/28 01:19:38;;;;;;;20.30;15.65;;;358.70;2329.60;;;;;;5037348;28;20086;-87
2021/04/28 01:22:04;;;;;;;19.58;14.60;;;358.70;2329.60;;;;;;5021045;28;20028;-87
2021/04/28 01:24:30;;;;;;;19.23;14.77;;;358.80;2329.60;;;;;;5036445;28;20025;-87
2021/04/28 01:27:01;;;;;;;18.48;13.70;;;358.80;2329.60;;;;;;5036865;28;20075;-87
2021/04/28 01:29:28;;;;;;;20.27;14.98;;;358.80;2329.60;;;;;;5037710;28;20045;-88
2021/04/28 01:31:58;;;;;;;20.63;15.80;;;358.80;2329.60;;;;;;5054544;28;20108;-87
2021/04/28 01:34:25;;;;;;;21.33;15.82;;;358.80;2329.60;;;;;;5036709;28;20055;-87
2021/04/28 01:36:53;;;;;;;24.92;15.85;;;358.80;2329.60;;;;;;5036794;28;20108;-86
2021/04/28 01:39:20;;;;;;;19.45;14.85;;;358.90;2329.60;;;;;;5036099;28;20021;-87
2021/04/28 01:41:48;;;;;;;18.73;14.35;;;358.70;2329.60;;;;;;5035830;28;20017;-86
2021/04/28 01:44:17;;;;;;;19.98;15.30;;;358.70;2329.60;;;;;;5036875;28;20033;-86
2021/04/28 01:46:44;;;;;;;21.17;16.45;;;358.70;2329.60;;;;;;5036399;28;20025;-87
2021/04/28 01:49:10;;;;;;;26.15;18.08;;;358.80;2329.60;;;;;;5034562;28;20108;-86
2021/04/28 01:51:38;;;;;;;23.13;18.25;;;358.60;2329.60;;;;;;5031980;28;20024;-86
2021/04/28 01:54:06;;;;;;;22.48;16.33;;;358.70;2329.60;;;;;;5032229;28;20021;-84
2021/04/28 01:56:33;;;;;;;23.52;16.08;;;358.50;2329.60;;;;;;5032288;28;20102;-86
2021/04/28 01:58:59;;;;;;;21.95;15.57;;;358.70;2329.60;;;;;;5034698;28;20021;-86
2021/04/28 02:01:26;;;;;;;19.30;14.45;;;358.60;2329.60;;;;;;5034880;28;20021;-85
2021/04/28 02:03:55;;;;;;;21.63;15.88;;;358.70;2329.60;;;;;;5035682;28;20068;-87
2021/04/28 02:06:22;;;;;;;24.58;16.77;;;358.50;2329.60;;;;;;5034842;28;20120;-87
2021/04/28 02:08:49;;;;;;;23.05;17.02;;;358.60;2329.60;;;;;;5036179;28;20017;-86
2021/04/28 02:11:23;;;;;;;22.48;15.50;;;359.10;2329.60;;;;;;5035451;28;20468;-86
2021/04/28 02:13:51;;;;;;;24.60;18.42;;;358.50;2329.60;;;;;;5036298;28;20029;-85
2021/04/28 02:16:17;;;;;;;24.50;17.58;;;358.40;2329.60;;;;;;5036761;28;20032;-86
2021/04/28 02:18:45;;;;;;;24.83;18.75;;;358.50;2329.60;;;;;;5035467;28;20104;-87
2021/04/28 02:21:11;;;;;;;26.50;18.48;;;358.50;2329.60;;;;;;5035665;28;20049;-86
2021/04/28 02:23:42;;;;;;;29.10;19.50;;;358.50;2329.60;;;;;;5035284;28;20102;-85
2021/04/28 02:26:08;;;;;;;32.20;21.48;;;358.50;2329.60;;;;;;5036177;28;20023;-86
2021/04/28 02:28:34;;;;;;;37.65;22.17;;;358.60;2329.60;;;;;;5035621;28;20048;-86
2021/04/28 02:31:01;;;;;;;35.83;22.10;;;358.60;2329.60;;;;;;5036177;28;20448;-86
2021/04/28 02:33:27;;;;;;;28.10;17.45;;;358.50;2329.60;;;;;;5035984;28;20401;-86
2021/04/28 02:35:58;;;;;;;29.13;22.77;;;333.60;2329.60;;;;;;5036216;28;20025;-86
2021/04/28 02:38:49;;;;;;;26.77;21.70;;;333.50;2329.60;;;;;;5036176;28;20021;-87
2021/04/28 02:41:16;;;;;;;22.10;19.10;;;333.60;2329.60;;;;;;5029240;28;20033;-86
2021/04/28 02:43:42;;;;;;;25.00;20.65;;;333.70;2329.60;;;;;;5035809;28;20087;-86
2021/04/28 02:46:11;;;;;;;24.52;19.83;;;333.70;2329.60;;;;;;5035881;28;20025;-87
2021/04/28 02:48:39;;;;;;;23.35;17.17;;;333.50;2329.60;;;;;;5035697;28;20126;-88
2021/04/28 02:51:05;;;;;;;26.15;16.52;;;333.70;2329.60;;;;;;5037107;28;20029;-87
2021/04/28 02:53:32;;;;;;;22.10;17.40;;;333.70;2329.60;;;;;;5039022;28;20071;-87
2021/04/28 02:55:59;;;;;;;20.58;16.83;;;358.40;2329.60;;;;;;5039684;28;20453;-84
2021/04/28 02:58:29;;;;;;;21.45;15.18;;;333.70;2329.60;;;;;;5039389;28;20021;-88
2021/04/28 03:00:57;;;;;;;20.63;16.85;;;333.70;2329.60;;;;;;5039715;28;20024;-85
2021/04/28 03:03:23;;;;;;;21.73;16.90;;;333.70;2329.60;;;;;;5039245;28;20025;-87
2021/04/28 03:05:56;;;;;;;24.50;17.50;;;333.50;2329.60;;;;;;5039801;28;20522;-85
2021/04/28 03:08:25;;;;;;;19.25;16.90;;;333.40;2329.60;;;;;;5039657;28;20528;-87
2021/04/28 03:10:52;;;;;;;23.23;17.73;;;333.30;2329.60;;;;;;5023537;28;20123;-87
2021/04/28 03:13:19;;;;;;;28.10;20.13;;;333.40;2329.60;;;;;;5039497;28;20017;-86
2021/04/28 03:15:47;;;;;;;32.15;22.27;;;333.60;2329.60;;;;;;5048774;28;20017;-88
2021/04/28 03:18:14;;;;;;;31.17;22.27;;;333.60;2329.60;;;;;;5047841;28;20102;-86
2021/04/28 03:20:44;;;;;;;26.88;20.38;;;333.60;2329.60;;;;;;5039625;28;20394;-86
2021/04/28 03:23:12;;;;;;;26.02;18.40;;;333.70;2329.60;;;;;;5037836;28;20029;-86
2021/04/28 03:25:42;;;;;;;22.27;18.92;;;333.70;2329.60;;;;;;5039038;28;20514;-88
2021/04/28 03:28:09;;;;;;;23.10;17.67;;;333.70;2329.60;;;;;;5038407;28;20045;-86
2021/04/28 03:30:35;;;;;;;24.92;19.65;;;358.40;2329.60;;;;;;5038906;28;20021;-87
2021/04/28 03:33:01;;;;;;;24.92;18.67;;;333.70;2329.60;;;;;;5039309;28;20120;-86
2021/04/28 03:35:27;;;;;;;32.30;23.00;;;333.70;2329.60;;;;;;5039756;28;20075;-86
2021/04/28 03:37:53;;;;;;;31.02;23.85;;;333.60;2329.60;;;;;;5038886;28;20399;-86
2021/04/28 03:40:20;;;;;;;30.70;22.35;;;333.70;2329.60;;;;;;5022461;28;20048;-85
2021/04/28 03:42:46;;;;;;;35.17;23.73;;;333.70;2329.60;;;;;;5038690;28;20028;-87
2021/04/28 03:45:13;;;;;;;33.25;26.02;;;358.40;2329.60;;;;;;5022262;28;20035;-86
2021/04/28 03:47:39;;;;;;;34.85;24.95;;;333.60;2329.60;;;;;;5006457;28;20025;-87
2021/04/28 03:50:06;;;;;;;24.48;20.08;;;333.70;2329.60;;;;;;5038797;28;20025;-87
2021/04/28 03:52:34;;;;;;;32.70;27.75;;;333.40;2329.60;;;;;;5038512;28;20063;-87
2021/04/28 03:55:00;;;;;;;38.50;34.55;;;333.30;2329.60;;;;;;5038674;28;20045;-87
2021/04/28 03:57:29;;;;;;;26.40;20.70;;;333.40;2329.60;;;;;;5038484;28;20070;-87
2021/04/28 03:59:55;;;;;;;26.38;20.10;;;333.20;2329.60;;;;;;5038905;28;20017;-87
2021/04/28 04:02:22;;;;;;;33.30;23.35;;;333.30;2329.60;;;;;;5038307;28;20458;-86
2021/04/28 04:04:48;;;;;;;46.63;32.80;;;333.40;2329.60;;;;;;5021431;28;20025;-86
2021/04/28 04:07:15;;;;;;;33.45;26.60;;;333.60;2329.60;;;;;;5022812;28;20031;-86
2021/04/28 04:09:42;;;;;;;31.33;22.83;;;333.70;2329.60;;;;;;5055976;28;20017;-86
2021/04/28 04:12:09;;;;;;;27.85;21.13;;;333.60;2329.60;;;;;;5055845;28;20017;-86
2021/04/28 04:14:35;;;;;;;29.30;24.15;;;333.60;2329.60;;;;;;5038561;28;20025;-86
2021/04/28 04:17:08;;;;;;;25.02;21.30;;;333.40;2329.60;;;;;;5056062;28;20032;-86
2021/04/28 04:19:34;;;;;;;25.45;17.90;;;333.30;2329.60;;;;;;5038094;28;20102;-86
2021/04/28 04:22:00;;;;;;;26.48;19.23;;;333.30;2329.60;;;;;;5038220;28;20029;-86
2021/04/28 04:24:26;;;;;;;24.50;21.73;;;333.50;2329.60;;;;;;5037959;28;20399;-86
2021/04/28 04:26:52;;;;;;;35.55;29.95;;;333.60;2329.60;;;;;;5037808;28;20013;-87
2021/04/28 04:29:23;;;;;;;45.45;31.15;;;333.40;2329.60;;;;;;5055611;28;20542;-87
2021/04/28 04:31:49;;;;;;;35.83;31.95;;;333.50;2329.60;;;;;;5021457;28;20032;-87
2021/04/28 04:34:15;;;;;;;39.35;35.20;;;333.60;2329.60;;;;;;5037649;28;20017;-87
2021/04/28 04:36:41;;;;;;;40.50;33.70;;;333.60;2329.60;;;;;;5037910;28;20049;-87
2021/04/28 04:39:07;;;;;;;31.27;23.67;;;333.60;2329.60;;;;;;5038707;28;20067;-86
2021/04/28 04:41:34;;;;;;;29.52;23.77;;;333.50;2329.60;;;;;;5037552;28;20471;-86
2021/04/28 04:44:00;;;;;;;25.85;22.77;;;333.60;2329.60;;;;;;5038084;28;20086;-88
2021/04/28 04:46:26;;;;;;;24.00;17.73;;;333.70;2329.60;;;;;;5038376;28;20086;-88
2021/04/28 04:48:52;;;;;;;28.13;18.83;;;358.40;2329.60;;;;;;5037809;28;20456;-85
2021/04/28 04:51:30;;;;;;;22.17;16.00;;;358.50;2329.60;;;;;;5034914;28;20479;-86
2021/04/28 04:53:56;;;;;;;27.98;18.20;;;358.50;2329.60;;;;;;5037263;28;20457;-86
2021/04/28 04:56:22;;;;;;;24.27;19.73;;;333.60;2329.60;;;;;;5035089;28;20021;-85
2021/04/28 04:58:47;;;;;;;24.10;19.75;;;358.70;2329.60;;;;;;5037754;28;20066;-85
2021/04/28 05:01:13;;;;;;;25.15;19.73;;;358.70;2329.60;;;;;;5036374;28;20020;-86
2021/04/28 05:03:39;;;;;;;24.85;19.10;;;358.70;2329.60;;;;;;5036522;28;20037;-87
2021/04/28 05:06:08;;;;;;;20.55;18.02;;;358.70;2329.60;;;;;;5050873;28;20029;-85
2021/04/28 05:08:34;;;;;;;21.73;18.13;;;358.70;2329.60;;;;;;5050509;28;20033;-86
2021/04/28 05:11:00;;;;;;;24.23;18.25;;;358.80;2329.60;;;;;;5023059;28;20249;-83
2021/04/28 05:13:26;;;;;;;16.08;14.25;;;358.90;2329.60;;;;;;5055306;28;20029;-84
2021/04/28 05:15:51;;;;;;;19.80;14.77;;;359.20;2329.60;;;;;;5036039;28;20029;-87
2021/04/28 05:18:17;;;;;;;18.95;13.88;;;359.00;2329.60;;;;;;5036627;28;20035;-87
2021/04/28 05:20:43;;;;;;;21.33;14.30;;;359.00;2329.60;;;;;;5037764;28;20078;-83
2021/04/28 05:23:09;;;;;;;18.52;15.15;;;359.00;2329.60;;;;;;5036595;28;20033;-85
2021/04/28 05:25:35;;;;;;;19.15;16.58;;;359.00;2329.60;;;;;;5036748;28;20025;-85
2021/04/28 05:28:02;;;;;;;20.23;16.55;;;359.10;2329.60;;;;;;5036415;28;20478;-78
2021/04/28 05:30:28;;;;;;;19.92;15.88;;;359.30;2329.60;;;;;;5054515;28;20021;-79
2021/04/28 05:32:54;;;;;;;19.75;14.52;;;359.20;2329.60;;;;;;5054203;28;20412;-75
2021/04/28 05:35:20;;;;;;;23.85;15.32;;;359.30;2329.60;;;;;;5054424;28;20021;-75
2021/04/28 05:37:47;;;;;;;21.30;14.80;;;359.10;2329.60;;;;;;5036493;28;20029;-81
2021/04/28 05:40:14;;;;;;;21.38;15.88;;;359.20;2329.60;;;;;;5036631;28;20112;-77
2021/04/28 05:42:40;;;;;;;15.82;14.07;;;359.30;2329.60;;;;;;5036018;28;20222;-79
2021/04/28 05:45:08;;;;;;;17.48;12.73;;;384.00;2329.60;;;;;;5037005;28;20017;-77
2021/04/28 05:47:34;;;;;;;18.20;12.73;;;384.00;2329.60;;;;;;5054238;28;20415;-77
2021/04/28 05:49:59;;;;;;;24.23;16.65;;;384.20;2329.60;;;;;;5036054;28;20021;-75
2021/04/28 05:52:25;;;;;;;23.50;16.75;;;384.30;2329.60;;;;;;5036221;28;20020;-75
2021/04/28 05:54:51;;;;;;;22.05;15.52;;;384.40;2329.60;;;;;;5036776;28;20021;-76
2021/04/28 05:57:17;;;;;;;24.52;16.80;;;384.40;2329.60;;;;;;5053500;28;20021;-75
2021/04/28 05:59:44;;;;;;;22.42;16.67;;;384.30;2329.60;;;;;;5036193;28;20047;-79
2021/04/28 06:02:11;;;;;;;21.63;16.38;;;384.30;2329.60;;;;;;5054028;28;20021;-76
2021/04/28 06:04:37;;;;;;;22.63;17.27;;;384.40;2329.60;;;;;;5035457;28;20103;-77
2021/04/28 06:07:03;;;;;;;22.77;17.40;;;384.40;2329.60;;;;;;5036087;28;20025;-77
2021/04/28 06:09:29;;;;;;;23.60;18.05;;;384.40;2329.60;;;;;;5036003;28;20044;-76
2021/04/28 06:11:55;;;;;;;21.15;15.02;;;384.60;2329.60;;;;;;5032738;28;20021;-77
2021/04/28 06:14:21;;;;;;;24.27;17.85;;;384.60;2329.60;;;;;;5035813;28;20036;-77
2021/04/28 06:16:47;;;;;;;18.52;13.38;;;384.70;2329.60;;;;;;5034375;28;20021;-74
2021/04/28 06:19:15;;;;;;;19.98;15.10;;;409.80;2355.20;;;;;;5034591;28;20052;-75
2021/04/28 06:21:40;;;;;;;19.95;14.18;;;384.70;2329.60;;;;;;5035341;28;20434;-78
2021/04/28 06:24:07;;;;;;;34.42;15.90;;;384.90;2329.60;;;;;;5035811;28;20119;-76
2021/04/28 06:26:34;;;;;;;27.13;13.65;;;384.90;2329.60;;;;;;5032916;28;20056;-81
2021/04/28 06:29:00;;;;;;;66.07;18.15;;;409.60;2355.20;;;;;;5053233;28;20468;-77
2021/04/28 06:31:25;;;;;;;43.92;14.05;;;409.60;2355.20;;;;;;5035900;28;20020;-82
2021/04/28 06:33:52;;;;;;;26.30;13.60;;;409.70;2355.20;;;;;;5035265;28;20530;-82
2021/04/28 06:36:18;;;;;;;16.90;12.07;;;409.80;2355.20;;;;;;5036886;28;20368;-78
2021/04/28 06:38:44;;;;;;;20.42;12.00;;;409.80;2355.20;;;;;;5033404;28;20079;-80
2021/04/28 06:41:09;;;;;;;15.30;11.88;;;409.90;2355.20;;;;;;5036580;28;20021;-81
2021/04/28 06:43:35;;;;;;;19.27;12.40;;;409.90;2355.20;;;;;;5051680;28;20029;-81
2021/04/28 06:46:01;;;;;;;14.07;11.45;;;409.90;2355.20;;;;;;5034613;28;20021;-82
2021/04/28 06:48:27;;;;;;;16.00;11.15;;;410.00;2355.20;;;;;;5034149;28;20017;-81
2021/04/28 06:50:53;;;;;;;15.18;10.38;;;410.10;2355.20;;;;;;5050145;28;20067;-82
2021/04/28 06:53:19;;;;;;;18.42;11.85;;;410.20;2355.20;;;;;;5033244;28;20483;-82
2021/04/28 06:55:45;;;;;;;17.50;11.30;;;410.20;2355.20;;;;;;5033325;28;20025;-82
2021/04/28 06:58:11;;;;;;;15.07;11.32;;;410.50;2355.20;;;;;;5052477;28;20031;-82
2021/04/28 07:00:37;;;;;;;16.20;10.57;;;410.30;2355.20;;;;;;5035256;28;20024;-83
2021/04/28 07:03:03;;;;;;;14.65;10.80;;;410.50;2355.20;;;;;;5035542;28;20067;-83
2021/04/28 07:05:29;;;;;;;32.45;10.80;;;410.50;2355.20;;;;;;5035523;28;20095;-80
2021/04/28 07:07:55;;;;;;;17.38;11.40;;;435.20;2355.20;;;;;;5053152;28;20017;-82
2021/04/28 07:10:22;;;;;;;19.17;11.70;;;435.30;2355.20;;;;;;5035253;28;20013;-82
2021/04/28 07:12:49;;;;;;;18.65;10.88;;;435.40;2355.20;;;;;;5053067;28;20092;-82
2021/04/28 07:15:15;;;;;;;15.25;10.98;;;435.40;2355.20;;;;;;5053400;28;20025;-81
2021/04/28 07:17:44;;;;;;;22.10;10.27;;;435.30;2355.20;;;;;;5035419;28;20110;-81
2021/04/28 07:20:10;;;;;;;14.48;10.18;;;435.50;2355.20;;;;;;5035574;28;20021;-82
2021/04/28 07:22:36;;;;;;;16.13;10.05;;;435.60;2355.20;;;;;;5034971;28;20053;-79
2021/04/28 07:25:03;;;;;;;19.15;12.27;;;435.80;2355.20;;;;;;5053282;28;20021;-79
2021/04/28 07:27:29;;;;;;;15.07;10.32;;;435.90;2355.20;;;;;;5052595;28;20083;-80
2021/04/28 07:29:55;;;;;;;27.27;12.60;;;436.00;2355.20;;;;;;5052956;28;20045;-78
2021/04/28 07:32:21;;;;;;;22.35;11.63;;;460.80;2380.80;;;;;;5035275;28;20471;-79
2021/04/28 07:34:47;;;;;;;39.35;11.90;;;460.80;2380.80;;;;;;5035415;28;20119;-79
2021/04/28 07:37:13;;;;;;;23.48;11.20;;;460.80;2380.80;;;;;;5035347;28;20163;-78
2021/04/28 07:39:39;;;;;;;29.45;12.50;;;461.00;2380.80;;;;;;5037917;28;20044;-76
2021/04/28 07:42:05;;;;;;;15.32;9.77;;;461.10;2380.80;;;;;;5056433;28;20048;-79
2021/04/28 07:44:31;;;;;;;15.27;9.40;;;461.20;2380.80;;;;;;5056283;28;20364;-79
2021/04/28 07:46:58;;;;;;;18.30;10.27;;;461.30;2380.80;;;;;;5038578;28;20017;-80
2021/04/28 07:49:24;;;;;;;13.52;8.65;;;461.40;2380.80;;;;;;5038610;28;20548;-78
2021/04/28 07:51:51;;;;;;;13.00;8.48;;;461.50;2380.80;;;;;;5038718;28;20044;-79
2021/04/28 07:54:18;;;;;;;11.38;8.48;;;461.50;2380.80;;;;;;5056987;28;20538;-79
2021/04/28 07:56:44;;;;;;;17.67;9.20;;;461.70;2380.80;;;;;;5038109;28;20024;-80
2021/04/28 07:59:10;;;;;;;16.05;8.18;;;486.40;2380.80;;;;;;5056564;28;20100;-79
2021/04/28 08:01:36;;;;;;;14.30;9.18;;;486.50;2380.80;;;;;;5038464;28;20329;-79
2021/04/28 08:04:02;;;;;;;16.52;11.60;;;486.70;2380.80;;;;;;5056047;28;20032;-79
2021/04/28 08:06:28;;;;;;;17.92;12.00;;;486.70;2380.80;;;;;;5038438;28;20021;-79
2021/04/28 08:08:54;;;;;;;14.20;9.05;;;486.80;2380.80;;;;;;5038718;28;20021;-79
2021/04/28 08:11:20;;;;;;;12.70;8.45;;;487.00;2380.80;;;;;;5047595;28;20448;-80
2021/04/28 08:13:47;;;;;;;16.17;9.50;;;487.00;2380.80;;;;;;5038789;28;20039;-79
2021/04/28 08:16:14;;;;;;;12.27;7.57;;;487.10;2380.80;;;;;;5038142;28;20025;-79
2021/04/28 08:18:41;;;;;;;12.20;7.93;;;487.10;2380.80;;;;;;5037771;28;20029;-79
2021/04/28 08:21:08;;;;;;;32.28;10.77;;;487.10;2380.80;;;;;;5036686;28;20364;-79
2021/04/28 08:23:41;;;;;;;20.08;8.90;;;487.30;2380.80;;;;;;5037295;28;20041;-78
2021/04/28 08:26:07;;;;;;;11.20;7.32;;;487.30;2380.80;;;;;;5037138;28;20535;-79
2021/04/28 08:28:38;;;;;;;12.05;7.07;;;512.00;2380.80;;;;;;5055840;28;20115;-78
2021/04/28 08:31:04;;;;;;;23.47;9.10;;;512.20;2380.80;;;;;;5055265;28;20371;-79
2021/04/28 08:33:30;;;;;;;11.68;7.10;;;512.30;2380.80;;;;;;5037866;28;20025;-79
2021/04/28 08:35:56;;;;;;;12.70;7.70;;;512.40;2380.80;;;;;;5037800;28;20017;-78
2021/04/28 08:38:22;;;;;;;11.82;7.63;;;512.50;2329.60;;;;;;5037461;28;20025;-79
2021/04/28 08:40:48;;;;;;;14.77;7.80;;;512.60;2304.00;;;;;;5037613;28;20136;-79
2021/04/28 08:43:14;;;;;;;22.52;9.40;;;512.60;2278.40;;;;;;5055718;28;20527;-78
2021/04/28 08:45:39;;;;;;;12.90;7.40;;;512.80;2227.20;;;;;;5037268;28;20108;-77
2021/04/28 08:48:05;;;;;;;13.95;8.57;;;512.80;2176.00;;;;;;5037519;28;20461;-80
2021/04/28 08:50:31;;;;;;;14.30;7.50;;;512.90;2176.00;;;;;;5035645;28;20025;-78
2021/04/28 08:52:58;;;;;;;10.73;6.38;;;537.70;2150.40;;;;;;5055006;28;20032;-76
2021/04/28 08:55:24;;;;;;;15.38;7.45;;;537.90;2124.80;;;;;;5054090;28;20040;-78
2021/04/28 08:57:50;;;;;;;14.85;7.28;;;538.00;2124.80;;;;;;5037393;28;20028;-79
2021/04/28 09:00:16;;;;;;;13.50;7.53;;;538.00;2073.60;;;;;;5036689;28;20021;-79
2021/04/28 09:02:54;;;;;;;28.33;9.18;;;538.00;2022.40;;;;;;5037833;28;20413;-79
2021/04/28 09:05:20;;;;;;;13.25;6.60;;;538.20;1996.80;;;;;;5037008;28;20028;-79
2021/04/28 09:07:46;;;;;;;14.18;7.97;;;538.20;1996.80;;;;;;5037172;28;20108;-78
2021/04/28 09:10:27;;;;;;;7.72;5.53;;;538.40;1971.20;;;;;;5054728;28;20092;-78
2021/04/28 09:13:00;;;;;;;10.70;5.88;;;538.40;1945.60;;;;;;5037317;28;20369;-79
2021/04/28 09:15:33;;;;;;;13.10;6.07;;;538.50;1920.00;;;;;;5036895;28;20028;-79
2021/04/28 09:17:59;;;;;;;15.23;6.65;;;538.50;1894.40;;;;;;5036977;28;20017;-79
2021/04/28 09:20:35;;;;;;;18.77;7.53;;;538.50;1868.80;;;;;;5036512;28;20021;-79
2021/04/28 09:23:16;;;;;;;12.05;7.25;;;563.40;1894.40;;;;;;5035234;28;20029;-78
2021/04/28 09:25:54;;;;;;;16.10;9.43;;;563.50;1868.80;;;;;;5037280;28;20365;-78
2021/04/28 09:28:28;;;;;;;11.90;6.07;;;563.80;1843.20;;;;;;5035257;28;20126;-79
2021/04/28 09:31:15;;;;;;;12.20;5.97;;;563.80;1766.40;;;;;;5036928;28;20024;-79
2021/04/28 09:33:41;;;;;;;9.15;5.68;;;563.90;1792.00;;;;;;5036428;28;20024;-79
2021/04/28 09:36:12;;;;;;;12.93;6.97;;;563.90;1766.40;;;;;;5036897;28;20021;-78
2021/04/28 09:39:00;;;;;;;11.20;6.32;;;564.00;1766.40;;;;;;5036702;28;20021;-79
2021/04/28 09:41:35;;;;;;;11.23;5.97;;;564.00;1740.80;;;;;;5036466;28;20028;-79
2021/04/28 09:44:02;;;;;;;11.73;6.05;;;564.10;1740.80;;;;;;5036813;28;20461;-78
2021/04/28 09:46:28;;;;;;;12.25;5.30;;;588.80;1740.80;;;;;;5036534;28;20096;-78
2021/04/28 09:48:59;;;;;;;7.95;5.05;;;588.90;1715.20;;;;;;5054374;28;20021;-80
2021/04/28 09:51:35;;;;;;;7.80;5.28;;;589.00;1715.20;;;;;;5036372;28;20021;-78
2021/04/28 09:54:14;;;;;;;9.63;5.43;;;589.00;1715.20;;;;;;5036356;28;20079;-78
2021/04/28 09:56:42;;;;;;;7.80;4.90;;;589.30;1664.00;;;;;;5036053;28;20473;-79
2021/04/28 09:59:08;;;;;;;8.02;5.25;;;589.40;1664.00;;;;;;5054195;28;20017;-78
2021/04/28 10:01:37;;;;;;;9.48;5.20;;;589.60;1638.40;;;;;;5035443;28;20415;-78
2021/04/28 10:04:08;;;;;;;11.68;4.90;;;589.70;1612.80;;;;;;5054024;28;20040;-78
2021/04/28 10:06:45;;;;;;;17.10;6.20;;;589.70;1612.80;;;;;;5036900;28;20036;-79
2021/04/28 10:09:30;;;;;;;13.60;7.57;;;589.50;1638.40;;;;;;5035557;28;20021;-78
2021/04/28 10:12:00;;;;;;;12.23;6.00;;;614.50;1638.40;;;;;;5036023;28;20028;-77
2021/04/28 10:14:27;;;;;;;15.80;5.13;;;614.60;1612.80;;;;;;5036615;28;20337;-79
2021/04/28 10:16:55;;;;;;;15.10;6.00;;;614.80;1561.60;;;;;;5035681;28;20025;-78
2021/04/28 10:19:24;;;;;;;12.90;5.55;;;614.80;1536.00;;;;;;5035907;28;20028;-79
2021/04/28 10:21:52;;;;;;;7.13;5.18;;;615.00;1561.60;;;;;;5036385;28;20025;-78
2021/04/28 10:24:19;;;;;;;9.63;5.20;;;615.10;1484.80;;;;;;5035514;28;20039;-79
2021/04/28 10:26:48;;;;;;;26.25;5.78;;;615.30;1484.80;;;;;;5053510;28;20021;-78
2021/04/28 10:29:20;;;;;;;12.20;6.00;;;615.00;1484.80;;;;;;5053592;28;20037;-78
2021/04/28 10:31:51;;;;;;;11.90;5.07;;;615.10;1484.80;;;;;;5035889;28;20024;-78
2021/04/28 10:34:58;;;;;;;8.43;4.78;;;615.20;1510.40;;;;;;5034633;28;20025;-80
2021/04/28 10:37:28;;;;;;;8.82;5.10;;;615.10;1484.80;;;;;;4954784;28;20022;-79
2021/04/28 10:39:55;;;;;;;6.55;4.30;;;615.00;1484.80;;;;;;5024831;28;20036;-78
2021/04/28 10:42:37;;;;;;;10.40;5.00;;;614.90;1484.80;;;;;;5053644;28;20032;-81
2021/04/28 10:45:11;;;;;;;7.03;4.70;;;614.70;1510.40;;;;;;5035347;28;20400;-78
2021/04/28 10:47:39;;;;;;;17.65;6.28;;;614.40;1536.00;;;;;;5034473;28;20023;-79
2021/04/28 10:50:35;;;;;;;24.10;7.85;;;614.40;1561.60;;;;;;5035679;28;20021;-77
2021/04/28 10:53:02;;;;;;;29.33;7.00;;;615.00;1561.60;;;;;;5034096;28;20542;-78
2021/04/28 10:55:45;;;;;;;11.07;5.00;;;615.10;1536.00;;;;;;5036437;28;20025;-78
2021/04/28 10:58:24;;;;;;;12.95;4.90;;;640.00;1484.80;;;;;;5034169;28;20028;-78
2021/04/28 11:01:10;;;;;;;50.28;9.60;;;615.10;1510.40;;;;;;5035167;28;20021;-78
2021/04/28 11:03:51;;;;;;;12.10;4.78;;;615.10;1536.00;;;;;;5035608;28;20083;-80
2021/04/28 11:06:23;;;;;;;11.57;4.82;;;615.30;1510.40;;;;;;5035073;28;20028;-79
2021/04/28 11:09:03;;;;;;;9.10;4.82;;;640.50;1484.80;;;;;;5035470;28;20025;-79
2021/04/28 11:11:32;;;;;;;9.88;4.47;;;640.50;1408.00;;;;;;5035249;28;20431;-78
2021/04/28 11:14:11;;;;;;;18.08;5.63;;;640.40;1433.60;;;;;;5038592;28;20043;-79
2021/04/28 11:16:50;;;;;;;7.65;4.40;;;640.60;1433.60;;;;;;5039298;28;20017;-80
2021/04/28 11:19:27;;;;;;;10.30;4.93;;;640.50;1459.20;;;;;;5039018;28;20128;-79
2021/04/28 11:22:28;;;;;;;10.85;5.53;;;640.20;1433.60;;;;;;5039688;28;20391;-80
2021/04/28 11:25:08;;;;;;;18.25;5.20;;;640.60;1433.60;;;;;;5038999;28;20142;-79
2021/04/28 11:27:56;;;;;;;9.18;4.85;;;640.50;1433.60;;;;;;5038583;28;20087;-78
2021/04/28 11:30:28;;;;;;;10.05;4.75;;;640.20;1408.00;;;;;;5038914;28;20468;-79
2021/04/28 11:33:09;;;;;;;15.00;6.82;;;640.20;1484.80;;;;;;5038657;28;20456;-79
2021/04/28 11:35:37;;;;;;;7.20;4.80;;;640.10;1484.80;;;;;;5038854;28;20368;-80
2021/04/28 11:38:12;;;;;;;12.45;7.05;;;615.10;1459.20;;;;;;5056452;28;20021;-80
2021/04/28 11:41:04;;;;;;;11.55;4.97;;;615.10;1459.20;;;;;;5038564;28;20025;-79
2021/04/28 11:43:41;;;;;;;13.77;6.68;;;615.10;1459.20;;;;;;5039326;28;20051;-78
2021/04/28 11:46:12;;;;;;;10.18;5.00;;;615.00;1484.80;;;;;;5056930;28;20021;-79
2021/04/28 11:48:39;;;;;;;8.43;4.85;;;614.70;1510.40;;;;;;5038323;28;20031;-79
2021/04/28 11:51:11;;;;;;;8.05;5.25;;;614.70;1510.40;;;;;;5038790;28;20460;-79
2021/04/28 11:54:02;;;;;;;9.30;4.70;;;614.60;1510.40;;;;;;5039024;28;20448;-79
2021/04/28 11:56:47;;;;;;;8.77;4.43;;;614.60;1510.40;;;;;;5028632;28;20029;-79
2021/04/28 11:59:23;;;;;;;21.98;6.90;;;614.60;1510.40;;;;;;5038487;28;20025;-79
2021/04/28 12:02:06;;;;;;;36.67;6.80;;;614.70;1510.40;;;;;;5038036;28;20032;-80
2021/04/28 12:04:47;;;;;;;10.68;4.65;;;614.80;1536.00;;;;;;5038342;28;20032;-79
2021/04/28 12:07:17;;;;;;;17.33;6.70;;;614.60;1510.40;;;;;;5038953;28;20021;-80
2021/04/28 12:09:47;;;;;;;16.02;6.28;;;614.40;1536.00;;;;;;5038066;28;20415;-80
2021/04/28 12:12:17;;;;;;;8.63;6.03;;;614.40;1536.00;;;;;;5038834;28;20091;-79